createdAt,value
2018-01-31T01:52:21.110Z,16.40
2018-01-31T01:54:41.119Z,15.63
2018-01-31T01:57:07.394Z,16.65
2018-01-31T01:59:33.728Z,14.52
2018-01-31T02:01:59.988Z,15.57
2018-01-31T02:04:26.751Z,15.30
2018-01-31T02:06:53.080Z,15.35
2018-01-31T02:09:19.482Z,13.38
2018-01-31T02:11:45.732Z,15.60
2018-01-31T02:14:12.274Z,14.70
2018-01-31T02:16:38.530Z,16.33
2018-01-31T02:19:04.800Z,14.15
2018-01-31T02:21:31.408Z,15.48
2018-01-31T02:23:57.689Z,14.80
2018-01-31T02:26:23.935Z,13.40
2018-01-31T02:28:50.197Z,13.98
2018-01-31T02:31:16.442Z,13.80
2018-01-31T02:33:42.747Z,12.88
2018-01-31T02:36:09.074Z,13.18
2018-01-31T02:38:47.470Z,14.13
2018-01-31T02:41:13.773Z,14.00
2018-01-31T02:43:40.035Z,15.65
2018-01-31T02:46:06.265Z,13.45
2018-01-31T02:48:32.519Z,13.27
2018-01-31T02:50:59.354Z,13.15
2018-01-31T02:53:25.710Z,11.68
2018-01-31T02:55:52.338Z,10.70
2018-01-31T02:58:18.600Z,9.88
2018-01-31T03:00:44.870Z,11.63
2018-01-31T03:03:11.151Z,11.57
2018-01-31T03:05:37.371Z,11.02
2018-01-31T03:08:03.707Z,11.20
2018-01-31T03:10:30.426Z,11.68
2018-01-31T03:12:57.102Z,9.68
2018-01-31T03:15:23.354Z,9.07
2018-01-31T03:17:49.645Z,8.57
2018-01-31T03:20:15.915Z,7.93
2018-01-31T03:22:42.139Z,8.25
2018-01-31T03:25:08.410Z,7.22
2018-01-31T03:27:34.745Z,6.87
2018-01-31T03:30:01.367Z,8.70
2018-01-31T03:32:28.015Z,7.75
2018-01-31T03:34:55.629Z,7.40
2018-01-31T03:37:21.947Z,6.30
2018-01-31T03:39:48.164Z,6.62
2018-01-31T03:42:14.399Z,5.80
2018-01-31T03:44:40.660Z,6.22
2018-01-31T03:47:06.957Z,5.65
2018-01-31T03:49:33.219Z,6.28
2018-01-31T03:51:59.448Z,5.28
2018-01-31T03:54:26.684Z,5.10
2018-01-31T03:56:53.938Z,4.90
2018-01-31T03:59:20.229Z,5.30
2018-01-31T04:01:46.592Z,5.32
2018-01-31T04:04:12.832Z,4.55
2018-01-31T04:06:39.175Z,3.75
2018-01-31T04:09:05.417Z,4.65
2018-01-31T04:11:31.751Z,5.12
2018-01-31T04:13:58.067Z,5.95
2018-01-31T04:16:24.307Z,5.43
2018-01-31T04:18:50.593Z,6.10
2018-01-31T04:21:16.854Z,5.05
2018-01-31T04:23:43.104Z,4.57
2018-01-31T04:26:09.745Z,5.05
2018-01-31T04:28:36.382Z,4.82
2018-01-31T04:31:02.993Z,6.47
2018-01-31T04:33:29.261Z,6.28
2018-01-31T04:35:55.894Z,8.60
2018-01-31T04:38:22.513Z,6.57
2018-01-31T04:40:48.779Z,6.93
2018-01-31T04:43:15.017Z,10.50
2018-01-31T04:45:41.262Z,13.88
2018-01-31T04:48:07.502Z,17.05
2018-01-31T04:50:33.768Z,18.65
2018-01-31T04:52:59.993Z,12.43
2018-01-31T04:55:26.231Z,14.30
2018-01-31T04:57:52.857Z,14.52
2018-01-31T05:00:19.096Z,11.32
2018-01-31T05:02:45.339Z,12.43
2018-01-31T05:05:11.552Z,7.95
2018-01-31T05:07:38.040Z,9.50
2018-01-31T05:10:04.270Z,11.52
2018-01-31T05:12:30.512Z,7.57
2018-01-31T05:14:56.737Z,9.70
2018-01-31T05:17:22.957Z,8.70
2018-01-31T05:19:49.193Z,10.32
2018-01-31T05:22:15.430Z,12.20
2018-01-31T05:24:41.742Z,12.27
2018-01-31T05:27:07.993Z,10.23
2018-01-31T05:29:34.233Z,9.38
2018-01-31T05:32:00.500Z,9.05
2018-01-31T05:34:26.746Z,7.95
2018-01-31T05:36:53.010Z,7.95
2018-01-31T05:39:19.629Z,8.25
2018-01-31T05:41:45.882Z,8.13
2018-01-31T05:44:12.484Z,9.07
2018-01-31T05:46:38.727Z,8.35
2018-01-31T05:49:04.968Z,7.15
2018-01-31T05:51:32.601Z,8.38
2018-01-31T05:53:58.891Z,8.63
2018-01-31T05:56:25.146Z,8.48
2018-01-31T05:58:51.379Z,7.07
2018-01-31T06:01:17.653Z,8.35
2018-01-31T06:03:43.927Z,8.15
2018-01-31T06:06:10.129Z,7.68
2018-01-31T06:08:36.426Z,7.07
2018-01-31T06:11:02.661Z,7.87
2018-01-31T06:13:29.294Z,7.45
2018-01-31T06:15:55.490Z,9.75
2018-01-31T06:18:22.451Z,11.55
2018-01-31T06:20:48.673Z,9.75
2018-01-31T06:23:14.937Z,8.85
2018-01-31T06:25:41.535Z,9.85
2018-01-31T06:28:07.797Z,11.25
2018-01-31T06:30:34.985Z,8.95
2018-01-31T06:33:01.265Z,10.30
2018-01-31T06:35:27.530Z,8.18
2018-01-31T06:37:53.758Z,8.38
2018-01-31T06:40:19.989Z,9.05
2018-01-31T06:42:46.295Z,11.00
2018-01-31T06:45:13.005Z,12.35
2018-01-31T06:47:39.311Z,10.52
2018-01-31T06:50:05.544Z,9.20
2018-01-31T06:52:31.836Z,10.20
2018-01-31T06:54:58.094Z,7.85
2018-01-31T06:57:24.340Z,8.82
2018-01-31T06:59:50.575Z,8.30
2018-01-31T07:02:17.711Z,7.93
2018-01-31T07:04:43.990Z,7.72
2018-01-31T07:12:56.455Z,8.32
2018-01-31T07:15:23.319Z,8.90
2018-01-31T07:17:50.459Z,10.95
2018-01-31T07:20:16.726Z,10.82
2018-01-31T07:22:42.972Z,14.57
2018-01-31T07:25:09.569Z,11.75
2018-01-31T07:27:35.792Z,11.40
2018-01-31T07:30:02.060Z,12.90
2018-01-31T07:32:28.336Z,15.25
2018-01-31T07:34:54.668Z,14.93
2018-01-31T07:37:20.893Z,11.35
2018-01-31T07:39:47.157Z,11.38
2018-01-31T07:42:13.398Z,11.70
2018-01-31T07:44:39.661Z,10.85
2018-01-31T07:47:05.884Z,13.13
2018-01-31T07:49:32.109Z,12.93
2018-01-31T07:51:58.334Z,11.93
2018-01-31T07:54:24.949Z,15.32
2018-01-31T07:56:51.740Z,16.10
2018-01-31T07:59:18.007Z,13.00
2018-01-31T08:01:44.247Z,13.07
2018-01-31T08:04:10.464Z,14.63
2018-01-31T08:06:36.736Z,15.85
2018-01-31T08:09:03.124Z,19.77
2018-01-31T08:11:29.341Z,16.08
2018-01-31T08:13:55.622Z,15.98
2018-01-31T08:16:22.647Z,15.73
2018-01-31T08:18:49.302Z,14.85
2018-01-31T08:24:15.406Z,16.52
2018-01-31T08:26:44.856Z,19.58
2018-01-31T08:29:16.939Z,16.85
2018-01-31T08:31:43.743Z,17.90
2018-01-31T08:34:10.343Z,17.70
2018-01-31T08:36:36.605Z,17.20
2018-01-31T08:39:03.358Z,16.85
2018-01-31T08:41:30.049Z,22.45
2018-01-31T08:43:56.392Z,17.17
2018-01-31T08:46:22.631Z,16.45
2018-01-31T08:48:48.929Z,19.92
2018-01-31T08:51:15.174Z,19.65
2018-01-31T08:53:41.444Z,17.98
2018-01-31T08:56:08.046Z,24.15
2018-01-31T08:58:34.325Z,20.40
2018-01-31T09:01:00.601Z,20.17
2018-01-31T09:03:26.812Z,22.62
2018-01-31T09:05:53.087Z,26.27
2018-01-31T09:08:19.712Z,25.85
2018-01-31T09:10:46.096Z,23.38
2018-01-31T09:13:12.429Z,20.02
2018-01-31T09:15:38.743Z,22.85
2018-01-31T09:18:05.140Z,35.40
2018-01-31T09:20:31.382Z,40.63
2018-01-31T09:22:57.667Z,38.70
2018-01-31T09:25:24.015Z,32.30
2018-01-31T09:27:50.289Z,26.87
2018-01-31T09:30:16.610Z,24.20
2018-01-31T09:32:43.306Z,21.45
2018-01-31T09:35:09.628Z,19.52
2018-01-31T09:37:35.970Z,19.12
2018-01-31T09:40:02.341Z,20.88
2018-01-31T09:42:28.965Z,20.30
2018-01-31T09:44:55.794Z,21.17
2018-01-31T09:47:23.065Z,18.33
2018-01-31T09:49:49.762Z,19.73
2018-01-31T09:52:17.806Z,25.85
2018-01-31T09:54:42.390Z,26.55
2018-01-31T09:57:08.706Z,24.92
2018-01-31T09:59:35.006Z,27.98
2018-01-31T10:02:01.259Z,29.48
2018-01-31T10:04:27.912Z,26.10
2018-01-31T10:06:54.131Z,26.98
2018-01-31T10:09:20.582Z,24.40
2018-01-31T10:11:46.837Z,22.85
2018-01-31T10:14:13.115Z,22.25
2018-01-31T10:16:39.424Z,23.58
2018-01-31T10:19:05.650Z,25.95
2018-01-31T10:21:32.355Z,21.52
2018-01-31T10:23:58.681Z,19.73
2018-01-31T10:26:24.984Z,17.75
2018-01-31T10:28:51.248Z,19.05
2018-01-31T10:31:17.501Z,19.05
2018-01-31T10:33:43.760Z,19.17
2018-01-31T10:36:10.025Z,22.30
2018-01-31T10:38:36.270Z,19.00
2018-01-31T10:41:02.577Z,18.42
2018-01-31T10:43:28.805Z,14.43
2018-01-31T10:45:55.032Z,17.50
2018-01-31T10:48:21.324Z,15.60
2018-01-31T10:50:47.981Z,17.50
2018-01-31T10:53:14.298Z,17.30
2018-01-31T10:58:07.265Z,18.52
2018-01-31T11:00:33.503Z,15.13
2018-01-31T11:02:59.856Z,15.60
2018-01-31T11:05:26.130Z,13.40
2018-01-31T11:07:52.410Z,12.40
2018-01-31T11:10:18.690Z,13.13
2018-01-31T11:12:44.956Z,14.10
2018-01-31T11:15:11.206Z,14.55
2018-01-31T11:17:37.519Z,13.18
2018-01-31T11:20:03.866Z,12.17
2018-01-31T11:22:30.238Z,13.23
2018-01-31T11:24:56.495Z,11.83
2018-01-31T11:27:22.739Z,10.77
2018-01-31T11:29:49.040Z,10.57
2018-01-31T11:32:15.354Z,7.13
2018-01-31T11:34:41.720Z,6.87
2018-01-31T11:37:09.707Z,7.43
2018-01-31T11:39:35.934Z,6.57
2018-01-31T11:42:02.197Z,6.10
2018-01-31T11:44:28.424Z,7.78
2018-01-31T11:46:54.685Z,8.57
2018-01-31T11:49:20.933Z,7.97
2018-01-31T11:51:47.389Z,5.70
2018-01-31T11:54:13.633Z,6.55
2018-01-31T11:56:39.954Z,6.85
2018-01-31T11:59:06.236Z,7.37
2018-01-31T12:01:32.554Z,6.53
2018-01-31T12:03:58.788Z,7.15
2018-01-31T12:06:25.421Z,6.90
2018-01-31T12:08:52.035Z,7.53
2018-01-31T12:11:18.340Z,7.00
2018-01-31T12:14:08.455Z,6.80
2018-01-31T12:16:47.053Z,5.78
2018-01-31T12:19:34.266Z,5.68
2018-01-31T12:22:00.591Z,5.70
2018-01-31T12:24:39.089Z,7.55
2018-01-31T12:27:17.554Z,6.37
2018-01-31T12:29:56.246Z,6.15
2018-01-31T12:32:34.725Z,5.25
2018-01-31T12:35:13.076Z,5.93
2018-01-31T12:37:51.888Z,5.85
2018-01-31T12:40:17.922Z,5.87
2018-01-31T12:42:43.994Z,6.53
2018-01-31T12:45:10.015Z,4.97
2018-01-31T12:47:48.506Z,6.80
2018-01-31T12:50:26.840Z,11.55
2018-01-31T12:53:05.257Z,6.37
2018-01-31T12:55:43.719Z,5.62
2018-01-31T12:58:22.127Z,6.65
2018-01-31T13:01:00.667Z,5.95
2018-01-31T13:03:39.142Z,5.47
2018-01-31T13:06:17.621Z,5.97
2018-01-31T13:08:56.086Z,6.80
2018-01-31T13:11:34.481Z,6.37
2018-01-31T13:14:13.058Z,7.18
2018-01-31T13:16:51.433Z,8.05
2018-01-31T13:19:17.878Z,7.30
2018-01-31T13:21:56.403Z,7.10
2018-01-31T13:24:46.675Z,8.77
2018-01-31T13:27:22.897Z,6.55
2018-01-31T13:30:02.124Z,13.68
2018-01-31T13:32:40.765Z,6.80
2018-01-31T13:35:19.585Z,8.68
2018-01-31T13:38:04.194Z,8.18
2018-01-31T13:40:42.659Z,6.28
2018-01-31T13:43:29.851Z,9.50
2018-01-31T13:46:08.264Z,9.90
2018-01-31T13:48:46.736Z,9.18
2018-01-31T13:51:25.273Z,14.75
2018-01-31T13:54:03.747Z,8.23
2018-01-31T13:56:42.191Z,8.68
2018-01-31T13:59:20.751Z,9.05
2018-01-31T14:02:00.390Z,10.90
2018-01-31T14:04:38.935Z,12.40
2018-01-31T14:07:17.263Z,11.27
2018-01-31T14:09:55.634Z,11.35
2018-01-31T14:12:37.195Z,9.88
2018-01-31T14:15:15.652Z,10.50
2018-01-31T14:17:54.135Z,10.52
2018-01-31T14:20:32.553Z,14.27
2018-01-31T14:23:10.933Z,12.90
2018-01-31T14:25:49.444Z,12.15
2018-01-31T14:28:27.898Z,9.40
2018-01-31T14:31:06.496Z,10.50
2018-01-31T14:33:54.662Z,12.32
2018-01-31T14:36:20.711Z,12.13
2018-01-31T14:38:47.219Z,12.80
2018-01-31T14:41:13.281Z,10.38
2018-01-31T14:43:39.349Z,10.70
2018-01-31T14:46:05.378Z,9.05
2018-01-31T14:48:31.444Z,12.40
2018-01-31T14:50:57.892Z,9.93
2018-01-31T14:53:23.951Z,12.52
2018-01-31T14:55:49.997Z,16.75
2018-01-31T14:58:16.091Z,8.63
2018-01-31T15:00:42.120Z,11.80
2018-01-31T15:03:08.207Z,10.48
2018-01-31T15:05:34.310Z,10.40
2018-01-31T15:08:00.382Z,9.88
2018-01-31T15:10:26.429Z,11.48
2018-01-31T15:12:53.374Z,12.88
2018-01-31T15:15:19.400Z,11.48
2018-01-31T15:17:45.447Z,11.90
2018-01-31T15:20:11.509Z,11.43
2018-01-31T15:22:37.652Z,10.88
2018-01-31T15:25:03.712Z,9.73
2018-01-31T15:27:29.794Z,10.85
2018-01-31T15:29:55.874Z,10.85
2018-01-31T15:32:22.353Z,11.40
2018-01-31T15:34:48.405Z,13.32
2018-01-31T15:37:14.478Z,9.80
2018-01-31T15:39:40.590Z,10.77
2018-01-31T15:42:07.007Z,12.23
2018-01-31T15:44:33.428Z,11.02
2018-01-31T15:46:59.476Z,12.37
2018-01-31T15:49:25.857Z,9.05
2018-01-31T15:51:51.939Z,9.55
2018-01-31T15:54:18.042Z,8.65
2018-01-31T15:56:44.085Z,8.13
2018-01-31T15:59:10.107Z,10.68
2018-01-31T16:01:36.417Z,9.60
2018-01-31T16:04:02.821Z,8.02
2018-01-31T16:06:28.880Z,8.40
2018-01-31T16:08:55.314Z,9.27
2018-01-31T16:11:21.750Z,7.72
2018-01-31T16:13:49.089Z,9.80
2018-01-31T16:16:16.409Z,8.70
2018-01-31T16:18:54.727Z,11.90
2018-01-31T16:21:25.783Z,9.38
2018-01-31T16:23:52.091Z,9.60
2018-01-31T16:26:18.353Z,10.07
2018-01-31T16:28:56.942Z,10.02
2018-01-31T16:31:35.404Z,9.50
2018-01-31T16:34:02.125Z,10.18
2018-01-31T16:36:28.388Z,11.18
2018-01-31T16:38:54.620Z,13.65
2018-01-31T16:41:20.937Z,10.35
2018-01-31T16:43:47.598Z,13.80
2018-01-31T16:46:13.847Z,12.80
2018-01-31T16:48:40.163Z,9.43
2018-01-31T16:51:06.414Z,11.48
2018-01-31T16:53:32.675Z,13.02
2018-01-31T16:55:59.392Z,12.25
2018-01-31T16:58:25.692Z,15.15
2018-01-31T17:00:52.055Z,13.25
2018-01-31T17:03:18.375Z,13.40
2018-01-31T17:05:44.702Z,12.05
2018-01-31T17:08:11.050Z,10.95
2018-01-31T17:10:37.340Z,15.38
2018-01-31T17:13:03.651Z,11.02
2018-01-31T17:15:29.937Z,9.98
2018-01-31T17:17:56.270Z,11.30
2018-01-31T17:20:22.578Z,10.45
2018-01-31T17:22:48.805Z,12.00
2018-01-31T17:25:15.110Z,16.45
2018-01-31T17:27:41.401Z,14.52
2018-01-31T17:30:08.207Z,13.07
2018-01-31T17:32:34.535Z,11.43
2018-01-31T17:35:00.817Z,11.75
2018-01-31T17:37:27.458Z,12.40
2018-01-31T17:39:54.135Z,13.43
2018-01-31T17:42:20.402Z,13.15
2018-01-31T17:44:46.708Z,12.68
2018-01-31T17:47:13.657Z,12.50
2018-01-31T17:49:39.968Z,11.90
2018-01-31T17:52:06.297Z,12.10
2018-01-31T17:54:32.638Z,12.23
2018-01-31T17:56:58.865Z,15.10
2018-01-31T17:59:25.176Z,14.05
2018-01-31T18:01:51.433Z,14.13
2018-01-31T18:04:17.797Z,15.50
2018-01-31T18:06:44.483Z,18.60
2018-01-31T18:09:10.766Z,19.30
2018-01-31T18:11:38.463Z,17.10
2018-01-31T18:14:04.808Z,16.60
2018-01-31T18:16:31.121Z,16.90
2018-01-31T18:18:57.406Z,17.15
2018-01-31T18:21:23.653Z,12.82
2018-01-31T18:23:50.331Z,14.35
2018-01-31T18:26:16.628Z,15.02
2018-01-31T18:28:42.942Z,18.87
2018-01-31T18:31:09.664Z,15.43
2018-01-31T18:33:36.015Z,13.68
2018-01-31T18:36:02.658Z,15.10
2018-01-31T18:38:29.297Z,15.25
2018-01-31T18:40:55.909Z,12.55
2018-01-31T18:43:23.157Z,16.15
2018-01-31T18:45:50.674Z,12.93
2018-01-31T18:48:17.464Z,15.77
2018-01-31T18:50:44.282Z,12.37
2018-01-31T18:53:10.589Z,12.77
2018-01-31T18:55:36.944Z,10.88
2018-01-31T18:58:03.197Z,14.15
2018-01-31T19:00:29.467Z,12.25
2018-01-31T19:02:55.775Z,12.80
2018-01-31T19:05:22.613Z,11.60
2018-01-31T19:07:49.039Z,12.48
2018-01-31T19:10:16.193Z,13.60
2018-01-31T19:12:42.806Z,12.13
2018-01-31T19:15:09.081Z,14.23
2018-01-31T19:17:35.460Z,16.10
2018-01-31T19:20:01.813Z,11.12
2018-01-31T19:22:28.973Z,14.35
2018-01-31T19:24:56.510Z,13.20
2018-01-31T19:27:23.093Z,11.90
2018-01-31T19:29:49.474Z,12.82
2018-01-31T19:32:16.789Z,12.00
2018-01-31T19:34:43.075Z,15.20
2018-01-31T19:37:09.382Z,65.07
2018-01-31T19:39:35.642Z,25.95
2018-01-31T19:42:02.290Z,21.10
2018-01-31T19:44:29.006Z,21.62
2018-01-31T19:46:55.302Z,16.50
2018-01-31T19:49:21.584Z,13.50
2018-01-31T19:51:48.204Z,18.48
2018-01-31T19:54:14.530Z,19.48
2018-01-31T19:56:41.188Z,16.77
2018-01-31T19:59:07.514Z,17.25
2018-01-31T20:01:34.220Z,17.08
2018-01-31T20:04:00.531Z,19.15
2018-01-31T20:06:26.810Z,21.20
2018-01-31T20:08:54.088Z,22.20
2018-01-31T20:11:20.429Z,24.17
2018-01-31T20:13:48.872Z,25.27
2018-01-31T20:16:15.493Z,26.37
2018-01-31T20:18:41.789Z,25.98
2018-01-31T20:21:08.054Z,27.80
2018-01-31T20:23:34.430Z,17.12
2018-01-31T20:26:04.185Z,15.77
2018-01-31T20:28:30.452Z,14.25
2018-01-31T20:30:56.729Z,17.08
2018-01-31T20:33:22.978Z,15.63
2018-01-31T20:35:49.302Z,15.38
2018-01-31T20:38:15.572Z,17.05
2018-01-31T20:40:41.805Z,20.55
2018-01-31T20:43:08.108Z,24.30
2018-01-31T20:45:34.401Z,22.87
2018-01-31T20:48:00.690Z,17.30
2018-01-31T20:50:27.398Z,16.80
2018-01-31T20:52:53.686Z,18.90
2018-01-31T20:55:19.958Z,14.20
2018-01-31T20:57:46.213Z,13.45
2018-01-31T21:00:12.610Z,17.33
2018-01-31T21:02:38.899Z,14.30
2018-01-31T21:05:05.651Z,15.23
2018-01-31T21:07:32.759Z,14.70
2018-01-31T21:09:59.431Z,13.82
2018-01-31T21:12:25.715Z,14.48
2018-01-31T21:14:52.009Z,18.08
2018-01-31T21:17:19.340Z,19.12
2018-01-31T21:19:45.662Z,18.67
2018-01-31T21:22:11.969Z,22.35
2018-01-31T21:24:38.663Z,22.20
2018-01-31T21:27:05.143Z,24.98
2018-01-31T21:29:31.549Z,22.83
2018-01-31T21:31:57.897Z,19.33
2018-01-31T21:34:24.512Z,22.08
2018-01-31T21:36:50.755Z,18.87
2018-01-31T21:39:17.050Z,19.12
2018-01-31T21:41:43.620Z,18.98
2018-01-31T21:44:09.924Z,17.55
2018-01-31T21:46:36.189Z,15.57
2018-01-31T21:49:02.478Z,12.55
2018-01-31T21:51:28.736Z,16.42
2018-01-31T21:53:55.028Z,13.65
2018-01-31T21:56:21.454Z,15.50
2018-01-31T21:58:47.765Z,14.38
2018-01-31T22:01:14.032Z,16.55
2018-01-31T22:03:40.377Z,12.10
2018-01-31T22:06:06.664Z,10.90
2018-01-31T22:08:32.991Z,10.30
2018-01-31T22:10:59.285Z,6.28
2018-01-31T22:13:25.596Z,4.62
2018-01-31T22:15:51.921Z,3.62
2018-01-31T22:18:18.289Z,3.60
2018-01-31T22:20:44.908Z,2.12
2018-01-31T22:23:11.541Z,2.33
2018-01-31T22:25:38.610Z,2.42
2018-01-31T22:28:05.366Z,2.03
2018-01-31T22:30:31.689Z,2.60
2018-01-31T22:32:57.983Z,3.40
2018-01-31T22:35:24.281Z,5.22
2018-01-31T22:37:50.567Z,6.85
2018-01-31T22:40:17.266Z,5.43
2018-01-31T22:42:43.560Z,6.97
2018-01-31T22:45:09.822Z,8.15
2018-01-31T22:47:36.071Z,8.80
2018-01-31T22:50:03.148Z,4.45
2018-01-31T22:52:29.805Z,3.12
2018-01-31T22:54:56.017Z,1.73
2018-01-31T22:57:23.559Z,2.25
2018-01-31T22:59:50.198Z,3.37
2018-01-31T23:02:16.889Z,3.40
2018-01-31T23:04:43.167Z,1.92
2018-01-31T23:07:09.782Z,2.67
2018-01-31T23:09:36.157Z,1.73
2018-01-31T23:12:08.345Z,1.90
2018-01-31T23:14:40.631Z,7.70
2018-01-31T23:17:06.942Z,4.87
2018-01-31T23:19:33.161Z,7.25
2018-01-31T23:21:59.443Z,8.95
2018-01-31T23:24:25.693Z,14.55
2018-01-31T23:26:52.004Z,18.27
2018-01-31T23:29:18.260Z,6.57
2018-01-31T23:31:44.470Z,57.13
2018-01-31T23:34:11.117Z,165.75
2018-01-31T23:36:37.752Z,80.15
2018-01-31T23:39:04.381Z,77.32
2018-01-31T23:41:31.058Z,108.45
2018-01-31T23:43:57.462Z,79.15
2018-01-31T23:46:24.085Z,222.57
2018-01-31T23:48:50.785Z,95.62
2018-01-31T23:51:17.068Z,208.90
2018-01-31T23:53:43.671Z,124.62
2018-01-31T23:56:09.893Z,209.43
2018-01-31T23:58:36.147Z,76.78
